Terminal Aerodrome Forecast
Issued by NWS

Home | Current Version | Previous Version | Graphics & Text | Print | Product List | Glossary On
Versions: 1 2 3 4 5 6 7 8 9 10 11 12 13 14
000
FTUS43 KMPX 132300
TAFRWF
TAF
KRWF 132321Z 1400/1424 19013KT P6SM BKN060
     FM140900 24007KT P6SM SCT200
     FM141600 29008KT P6SM BKN100=

USA.gov is the U.S. government's official web portal to all federal, state and local government web resources and services.